createdAt,value
2018-12-14T00:02:46.904Z,101503.91
2018-12-14T00:08:03.978Z,101503.98
2018-12-14T00:13:16.092Z,101501.80
2018-12-14T00:18:27.360Z,101500.38
2018-12-14T00:23:41.936Z,101497.95
2018-12-14T00:28:52.975Z,101491.93
2018-12-14T00:34:05.743Z,101500.14
2018-12-14T00:39:16.817Z,101498.79
2018-12-14T00:44:29.021Z,101495.42
2018-12-14T00:49:40.225Z,101505.25
2018-12-14T00:54:54.149Z,101502.13
2018-12-14T01:00:08.634Z,101494.58
2018-12-14T01:05:20.800Z,101488.66
2018-12-14T01:10:31.748Z,101503.09
2018-12-14T01:15:43.888Z,101512.06
2018-12-14T01:20:55.893Z,101509.66
2018-12-14T01:26:07.375Z,101508.30
2018-12-14T01:31:19.448Z,101509.19
2018-12-14T01:36:30.509Z,101512.16
2018-12-14T01:41:42.626Z,101516.02
2018-12-14T01:46:54.222Z,101516.03
2018-12-14T01:52:06.133Z,101509.19
2018-12-14T01:57:19.154Z,101521.30
2018-12-14T02:02:35.251Z,101513.03
2018-12-14T02:07:47.669Z,101508.16
2018-12-14T02:12:59.808Z,101500.60
2018-12-14T02:18:11.064Z,101503.17
2018-12-14T02:23:23.052Z,101507.53
2018-12-14T02:28:34.104Z,101492.47
2018-12-14T02:33:46.495Z,101500.62
2018-12-14T02:38:57.560Z,101499.32
2018-12-14T02:44:06.260Z,101501.32
2018-12-14T02:49:17.313Z,101498.20
2018-12-14T02:54:29.652Z,101495.73
2018-12-14T02:59:40.678Z,101498.37
2018-12-14T03:04:55.256Z,101497.42
2018-12-14T03:10:02.833Z,101494.11
2018-12-14T03:15:14.853Z,101496.28
2018-12-14T03:20:25.865Z,101486.89
2018-12-14T03:25:38.298Z,101492.38
2018-12-14T03:30:50.514Z,101494.53
2018-12-14T03:36:01.603Z,101497.15
2018-12-14T03:41:13.719Z,101483.86
2018-12-14T03:46:24.766Z,101484.77
2018-12-14T03:51:36.881Z,101484.27
2018-12-14T03:56:48.027Z,101486.92
2018-12-14T04:02:00.561Z,101497.64
2018-12-14T04:07:11.470Z,101496.70
2018-12-14T04:12:23.412Z,101499.32
2018-12-14T04:17:36.643Z,101498.07
2018-12-14T04:22:49.185Z,101495.51
2018-12-14T04:28:00.249Z,101493.80
2018-12-14T04:33:12.415Z,101493.42
2018-12-14T04:38:23.565Z,101495.16
2018-12-14T04:43:32.070Z,101504.63
2018-12-14T04:48:43.032Z,101511.53
2018-12-14T04:51:12.353Z,101508.26
2018-12-14T04:56:23.379Z,101508.59
2018-12-14T05:01:35.660Z,101500.94
2018-12-14T05:06:47.185Z,101499.58
2018-12-14T05:11:59.204Z,101507.28
2018-12-14T05:17:10.223Z,101514.59
2018-12-14T05:22:22.576Z,101515.56
2018-12-14T05:27:33.672Z,101519.58
2018-12-14T05:32:45.930Z,101520.10
2018-12-14T05:37:56.979Z,101515.63
2018-12-14T05:43:08.967Z,101507.78
2018-12-14T05:48:19.964Z,101508.73
2018-12-14T05:53:31.998Z,101516.73
2018-12-14T05:58:42.952Z,101518.42
2018-12-14T06:03:55.410Z,101525.31
2018-12-14T06:09:08.039Z,101531.66
2018-12-14T06:14:20.084Z,101534.73
2018-12-14T06:19:31.164Z,101531.98
2018-12-14T06:24:43.664Z,101536.81
2018-12-14T06:29:57.084Z,101542.02
2018-12-14T06:35:09.794Z,101553.87
2018-12-14T06:40:20.847Z,101550.02
2018-12-14T06:45:32.972Z,101544.65
2018-12-14T06:50:48.210Z,101550.12
2018-12-14T06:56:01.123Z,101552.69
2018-12-14T07:01:13.303Z,101568.33
2018-12-14T07:06:24.288Z,101573.78
2018-12-14T07:11:40.045Z,101576.17
2018-12-14T07:16:51.128Z,101588.11
2018-12-14T07:22:03.302Z,101593.36
2018-12-14T07:27:15.775Z,101597.73
2018-12-14T07:32:28.108Z,101603.27
2018-12-14T07:37:36.001Z,101604.91
2018-12-14T07:42:49.905Z,101617.33
2018-12-14T07:48:04.303Z,101610.17
2018-12-14T07:53:16.944Z,101612.60
2018-12-14T07:58:24.502Z,101628.18
2018-12-14T08:03:38.497Z,101635.38
2018-12-14T08:08:49.553Z,101638.80
2018-12-14T08:14:01.549Z,101637.92
2018-12-14T08:19:14.471Z,101643.15
2018-12-14T08:24:26.644Z,101641.45
2018-12-14T08:29:37.707Z,101650.87
2018-12-14T08:34:51.095Z,101650.55
2018-12-14T08:42:44.148Z,101659.12
2018-12-14T08:47:55.993Z,101661.73
2018-12-14T08:50:25.770Z,101669.34
2018-12-14T08:55:37.805Z,101666.75
2018-12-14T09:00:49.357Z,101677.19
2018-12-14T09:06:01.446Z,101681.45
2018-12-14T09:11:13.591Z,101683.70
2018-12-14T09:16:24.683Z,101693.55
2018-12-14T09:21:37.416Z,101698.22
2018-12-14T09:26:49.705Z,101694.14
2018-12-14T09:31:58.633Z,101696.39
2018-12-14T09:37:11.147Z,101694.19
2018-12-14T09:42:23.179Z,101700.27
2018-12-14T09:47:36.245Z,101693.56
2018-12-14T09:50:06.029Z,101700.67
2018-12-14T09:55:18.195Z,101705.90
2018-12-14T10:00:29.288Z,101698.70
2018-12-14T10:05:41.222Z,101691.47
2018-12-14T10:10:53.908Z,101695.45
2018-12-14T10:16:06.681Z,101689.24
2018-12-14T10:18:36.265Z,101683.70
2018-12-14T10:21:06.002Z,101686.00
2018-12-14T10:26:17.089Z,101679.44
2018-12-14T10:31:29.273Z,101680.33
2018-12-14T10:36:41.573Z,101672.28
2018-12-14T10:41:54.133Z,101664.11
2018-12-14T10:47:05.320Z,101666.34
2018-12-14T10:52:17.557Z,101665.53
2018-12-14T10:57:28.749Z,101666.34
2018-12-14T11:02:50.829Z,101657.02
2018-12-14T11:07:58.352Z,101654.11
2018-12-14T11:13:10.560Z,101659.65
2018-12-14T11:18:23.780Z,101653.09
2018-12-14T11:20:53.128Z,101646.36
2018-12-14T11:26:06.249Z,101647.63
2018-12-14T11:28:35.709Z,101648.50
2018-12-14T11:31:05.254Z,101650.28
2018-12-14T11:36:18.425Z,101653.97
2018-12-14T11:41:30.581Z,101651.40
2018-12-14T11:46:45.172Z,101645.38
2018-12-14T11:51:57.241Z,101651.87
2018-12-14T11:57:08.205Z,101642.77
2018-12-14T11:59:37.543Z,101642.46
2018-12-14T12:04:49.824Z,101638.70
2018-12-14T12:09:57.378Z,101635.00
2018-12-14T12:12:26.897Z,101648.98
2018-12-14T12:17:39.348Z,101644.25
2018-12-14T12:22:52.657Z,101651.08
2018-12-14T12:28:01.412Z,101650.20
2018-12-14T12:33:13.790Z,101647.56
2018-12-14T12:38:25.625Z,101651.89
2018-12-14T12:43:40.132Z,101652.37
2018-12-14T12:48:53.341Z,101653.59
2018-12-14T12:54:06.393Z,101647.21
2018-12-14T12:59:17.753Z,101652.83
2018-12-14T13:01:47.231Z,101655.42
2018-12-14T13:07:02.304Z,101660.08
2018-12-14T13:12:14.758Z,101660.02
2018-12-14T13:17:25.954Z,101654.66
2018-12-14T13:22:34.644Z,101659.03
2018-12-14T13:27:46.216Z,101651.39
2018-12-14T13:32:58.974Z,101661.39
2018-12-14T13:38:12.292Z,101666.95
2018-12-14T13:43:24.910Z,101665.59
2018-12-14T13:48:36.509Z,101673.86
2018-12-14T13:53:49.018Z,101675.60
2018-12-14T13:59:01.505Z,101686.70
2018-12-14T14:04:16.620Z,101690.91
2018-12-14T14:09:28.256Z,101700.09
2018-12-14T14:14:40.772Z,101704.47
2018-12-14T14:19:52.582Z,101712.02
2018-12-14T14:25:05.576Z,101716.45
2018-12-14T14:30:17.328Z,101724.17
2018-12-14T14:35:29.577Z,101721.03
2018-12-14T14:40:40.670Z,101729.86
2018-12-14T14:45:52.966Z,101728.28
2018-12-14T14:51:06.036Z,101740.94
2018-12-14T14:56:17.259Z,101741.36
2018-12-14T15:01:29.929Z,101754.93
2018-12-14T15:06:45.283Z,101740.84
2018-12-14T15:09:14.764Z,101751.80
2018-12-14T15:11:44.434Z,101750.95
2018-12-14T15:16:56.121Z,101758.59
2018-12-14T15:19:25.717Z,101749.97
2018-12-14T15:24:38.204Z,101761.14
2018-12-14T15:29:46.868Z,101772.63
2018-12-14T15:34:56.086Z,101783.80
2018-12-14T15:40:10.974Z,101784.12
2018-12-14T15:45:26.412Z,101785.36
2018-12-14T15:50:37.656Z,101787.97
2018-12-14T15:55:50.109Z,101790.91
2018-12-14T16:01:02.519Z,101795.55
2018-12-14T16:06:13.839Z,101792.22
2018-12-14T16:11:23.036Z,101798.81
2018-12-14T16:16:34.674Z,101800.44
2018-12-14T16:21:47.079Z,101804.34
2018-12-14T16:26:59.019Z,101800.59
2018-12-14T16:32:11.218Z,101807.03
2018-12-14T16:37:24.567Z,101804.36
2018-12-14T16:42:36.533Z,101802.11
2018-12-14T16:47:48.492Z,101806.95
2018-12-14T16:53:00.413Z,101812.53
2018-12-14T16:58:11.375Z,101817.67
2018-12-14T17:03:23.560Z,101821.45
2018-12-14T17:08:37.559Z,101829.23
2018-12-14T17:11:06.902Z,101824.91
2018-12-14T17:16:20.077Z,101834.69
2018-12-14T17:21:32.237Z,101836.83
2018-12-14T17:26:43.526Z,101838.12
2018-12-14T17:31:55.526Z,101848.41
2018-12-14T17:37:07.627Z,101848.72
2018-12-14T17:42:19.770Z,101852.55
2018-12-14T17:47:32.452Z,101858.86
2018-12-14T17:50:01.921Z,101860.64
2018-12-14T17:55:14.196Z,101867.95
2018-12-14T18:00:25.379Z,101870.03
2018-12-14T18:05:37.457Z,101873.58
2018-12-14T18:10:48.670Z,101872.98
2018-12-14T18:16:00.634Z,101876.84
2018-12-14T18:21:12.762Z,101878.13
2018-12-14T18:26:23.661Z,101881.53
2018-12-14T18:31:38.866Z,101884.27
2018-12-14T18:36:49.944Z,101887.13
2018-12-14T18:42:04.527Z,101894.48
2018-12-14T18:47:15.535Z,101894.34
2018-12-14T18:52:28.256Z,101892.30
2018-12-14T18:57:39.897Z,101892.95
2018-12-14T19:02:56.424Z,101904.06
2018-12-14T19:08:10.580Z,101911.44
2018-12-14T19:13:26.287Z,101918.08
2018-12-14T19:18:38.311Z,101919.83
2018-12-14T19:21:08.137Z,101922.50
2018-12-14T19:26:16.365Z,101926.63
2018-12-14T19:31:30.686Z,101937.53
2018-12-14T19:36:41.968Z,101941.51
2018-12-14T19:39:11.775Z,101937.09
2018-12-14T19:41:41.435Z,101934.66
2018-12-14T19:46:53.744Z,101936.05
2018-12-14T19:52:08.537Z,101930.67
2018-12-14T19:57:20.719Z,101932.86
2018-12-14T20:02:35.172Z,101936.62
2018-12-14T20:07:46.980Z,101943.48
2018-12-14T20:10:16.540Z,101935.70
2018-12-14T20:15:30.371Z,101934.22
2018-12-14T20:20:48.450Z,101933.38
2018-12-14T20:26:00.670Z,101932.39
2018-12-14T20:31:15.059Z,101925.23
2018-12-14T20:36:27.584Z,101926.47
2018-12-14T20:41:39.889Z,101921.16
2018-12-14T20:46:52.338Z,101926.19
2018-12-14T20:52:07.030Z,101925.64
2018-12-14T20:57:19.253Z,101926.95
2018-12-14T21:02:31.538Z,101923.19
2018-12-14T21:07:42.682Z,101929.11
2018-12-14T21:12:52.032Z,101925.17
2018-12-14T21:18:04.610Z,101920.53
2018-12-14T21:23:17.752Z,101923.09
2018-12-14T21:28:29.257Z,101920.16
2018-12-14T21:33:44.230Z,101924.03
2018-12-14T21:38:56.713Z,101924.67
2018-12-14T21:44:15.276Z,101919.05
2018-12-14T21:49:28.822Z,101915.11
2018-12-14T21:54:41.191Z,101913.56
2018-12-14T21:59:52.309Z,101907.04
2018-12-14T22:05:06.304Z,101896.89
2018-12-14T22:10:17.445Z,101901.23
2018-12-14T22:15:29.544Z,101900.10
2018-12-14T22:20:43.536Z,101902.26
2018-12-14T22:25:55.732Z,101911.61
2018-12-14T22:31:07.978Z,101900.48
2018-12-14T22:36:19.008Z,101907.67
2018-12-14T22:41:31.341Z,101906.60
2018-12-14T22:46:45.684Z,101912.02
2018-12-14T22:51:57.691Z,101916.62
2018-12-14T22:57:10.928Z,101912.81
2018-12-14T23:02:20.065Z,101914.87
2018-12-14T23:07:31.140Z,101915.05
2018-12-14T23:12:43.248Z,101919.01
2018-12-14T23:17:54.191Z,101929.45
2018-12-14T23:23:06.241Z,101933.08
2018-12-14T23:28:19.523Z,101930.30
2018-12-14T23:33:28.015Z,101935.80
2018-12-14T23:38:36.036Z,101931.52
2018-12-14T23:43:48.229Z,101936.81
2018-12-14T23:48:59.276Z,101944.12
2018-12-14T23:51:28.976Z,101939.00
2018-12-14T23:56:40.033Z,101948.31
